Mentone, AL (35984)

10:19 AM CST on January 25, 2015 (GMT -0600)
RAWS LIRI AL US | Change Station
CLOSE
Current Station
Personal Weather Station
Location: Valley Head, AL
Elevation: 1200 ft
Nearby Weather Stations

Elev 1200 ft 34.50 °N, 85.63 °W | Updated 55 minutes ago

Clear
Clear
45 °F
Feels Like 43 °F
N
4
Wind Variable Wind from South
Gusts 10.0 mph

Today
High -- | Low -- °F
--% Chance of Precip.
Yesterday
High -- | Low -- °F
Precip. -- in
6:44 AM 5:04 PM
Waxing Crescent, 33% visible
Pressure 29.88 in
Visibility 10.0 miles
Clouds Clear
Windchill 43 °F
Dew Point 32 °F
Humidity 60%
Rainfall 0.00 in
Snow Depth Not available.
UV 3 out of 12
Pollen .70 out of 12
Air Quality Not available.
Flu Activity Not available.
METAR K4A9 251555Z AUTO 23008KT 10SM CLR 05/00 A2988 RMK AO2

More Conditions Fewer Conditions

Pressure 29.88 in
Visibility 10.0 miles
Clouds Clear
Windchill 43 °F
Dew Point 32 °F
Humidity 60%
Rainfall 0.00 in
Snow Depth Not available.
UV 3 out of 12
Pollen .70 out of 12
Air Quality Not available.
Flu Activity Not available.
METAR K4A9 251555Z AUTO 23008KT 10SM CLR 05/00 A2988 RMK AO2

More Conditions Fewer Conditions

10-Day Weather Forecast

Almanac

Astronomy

Jan. 25, 2015 Rise Set
Actual Time
Civil Twilight
Nautical Twilight
Astronomical Twilight
Moon
Length of Visible Light
Length of Day
Tomorrow will be .
, % of the Moon is Illuminated

Today's Extremes

State Highs State Lows

Community

WunderPhotos

Upload Photos

1,789,939 photos uploaded!

WunderBlogs® & News

Nearby

Air Quality

  Air Quality AQ Index Pollutant
Not available.

Snow Depth

Station Depth Elevation

Earthquake Activity

City Distance Mag. Time & Date
Minimum magnitude displayed is 2.5.

Coastal Water Temperatures

Place Temperature

Nearby Weather Stations